Rocky Point, North Carolina
Current Conditions -  °F | °C
As of 12:53 AM on Sunday 26 Oct 2014 (Local Time) from KILM Reporting Station
Clear Clear  
Wind Chill: 55°   Ceiling: Unl
Heat Index: 55°   Visibility: 10mi
Dew Point: 46°   Wind: 0mph
Humidity: 72%   Direction: NA
Pressure: 29.89"   Gusts: NA
Location:  34.43°N, 77.89°W
Report Text: KILM 260453Z AUTO 00000KT 10SM CLR 13/08 A2989 RMK AO2 SLP120 T01280078 402440072
Loading
Personal Weather Stations






























Interactive Weather Map
Tropical Storm Tracking
New forecast layout! Learn more

10-Day Weather Forecast

Advertisements
Track Severe Weather on mobile